Time;durP1;ratioP1;P1;durP2;ratioP2;P2;SDS_P1;SDS_P2;PMS_P1;PMS_P2;Temp;Humidity;BMP_temperature;BMP_pressure;BME280_temperature;BME280_humidity;BME280_pressure;Samples;Min_cycle;Max_cycle;Signal;HPM_P1;HPM_P2
2022/03/07 00:01:17;;;;;;;48.45;25.02;;;;;;;;;;5012575;28;20042;-69
2022/03/07 00:03:47;;;;;;;44.67;22.85;;;;;;;;;;5012612;28;20046;-70
2022/03/07 00:06:16;;;;;;;48.90;25.05;;;;;;;;;;5014032;28;20041;-70
2022/03/07 00:08:49;;;;;;;41.78;23.35;;;;;;;;;;5012260;28;20056;-70
2022/03/07 00:11:17;;;;;;;44.78;24.02;;;;;;;;;;5012623;28;20492;-70
2022/03/07 00:13:51;;;;;;;46.83;23.45;;;;;;;;;;5013483;28;20073;-70
2022/03/07 00:16:19;;;;;;;45.50;23.58;;;;;;;;;;5012326;28;20132;-70
2022/03/07 00:18:54;;;;;;;44.90;23.75;;;;;;;;;;5013579;28;20519;-70
2022/03/07 00:21:22;;;;;;;;;;;;;;;;;;5012749;28;20065;-69
2022/03/07 00:24:15;;;;;;;44.45;23.05;;;;;;;;;;5012144;28;20339;-70
2022/03/07 00:27:07;;;;;;;41.83;22.40;;;;;;;;;;5013314;28;20049;-69
2022/03/07 00:29:37;;;;;;;45.90;24.73;;;;;;;;;;5012194;28;20397;-70
2022/03/07 00:32:07;;;;;;;46.90;24.23;;;;;;;;;;5013502;28;20042;-70
2022/03/07 00:34:40;;;;;;;46.20;23.73;;;;;;;;;;5012320;28;20125;-70
2022/03/07 00:37:14;;;;;;;48.72;25.52;;;;;;;;;;5013594;28;20140;-70
2022/03/07 00:39:42;;;;;;;49.22;23.77;;;;;;;;;;5013523;28;20485;-70
2022/03/07 00:42:11;;;;;;;48.22;25.83;;;;;;;;;;5011939;28;20496;-70
2022/03/07 00:44:46;;;;;;;42.47;23.73;;;;;;;;;;5013648;28;20612;-70
2022/03/07 00:47:15;;;;;;;49.15;25.77;;;;;;;;;;5012163;28;20088;-70
2022/03/07 00:49:47;;;;;;;48.95;24.15;;;;;;;;;;5013462;28;20046;-70
2022/03/07 00:52:19;;;;;;;47.50;24.73;;;;;;;;;;5013471;28;20050;-70
2022/03/07 00:54:47;;;;;;;49.67;25.80;;;;;;;;;;5012042;28;20046;-70
2022/03/07 00:57:20;;;;;;;48.17;24.83;;;;;;;;;;5012104;28;20049;-70
2022/03/07 00:59:56;;;;;;;51.45;25.75;;;;;;;;;;5011746;28;20061;-70
2022/03/07 01:02:50;;;;;;;44.08;24.50;;;;;;;;;;5011915;28;20053;-70
2022/03/07 01:05:19;;;;;;;47.40;23.38;;;;;;;;;;5011583;28;20057;-70
2022/03/07 01:07:53;;;;;;;42.33;21.73;;;;;;;;;;5013343;28;20041;-70
2022/03/07 01:10:22;;;;;;;46.22;23.92;;;;;;;;;;5012427;28;20092;-70
2022/03/07 01:12:50;;;;;;;44.22;25.13;;;;;;;;;;5015497;28;20046;-70
2022/03/07 01:15:42;;;;;;;47.95;23.40;;;;;;;;;;5016899;28;20405;-70
2022/03/07 01:18:15;;;;;;;43.20;23.08;;;;;;;;;;5016767;28;20048;-71
2022/03/07 01:20:43;;;;;;;44.47;23.23;;;;;;;;;;5015360;28;20081;-70
2022/03/07 01:23:11;;;;;;;47.33;25.98;;;;;;;;;;5016306;28;20042;-70
2022/03/07 01:25:39;;;;;;;47.83;25.13;;;;;;;;;;5016675;28;20046;-70
2022/03/07 01:28:32;;;;;;;46.97;25.38;;;;;;;;;;5016622;28;20144;-71
2022/03/07 01:31:01;;;;;;;46.67;25.13;;;;;;;;;;5015328;28;20050;-70
2022/03/07 01:33:33;;;;;;;41.15;23.38;;;;;;;;;;5016560;28;20493;-70
2022/03/07 01:36:03;;;;;;;41.50;23.40;;;;;;;;;;5015035;28;20461;-71
2022/03/07 01:38:33;;;;;;;30.08;17.40;;;;;;;;;;5016757;28;20065;-71
2022/03/07 01:41:09;;;;;;;26.70;15.82;;;;;;;;;;5016312;28;20038;-70
2022/03/07 01:43:42;;;;;;;23.58;13.57;;;;;;;;;;5015049;28;20062;-70
2022/03/07 01:46:17;;;;;;;18.75;9.77;;;;;;;;;;5016119;28;20559;-70
2022/03/07 01:48:45;;;;;;;16.92;9.68;;;;;;;;;;5031502;28;20046;-70
2022/03/07 01:51:22;;;;;;;15.88;9.27;;;;;;;;;;5015737;28;20037;-70
2022/03/07 01:54:18;;;;;;;13.90;7.45;;;;;;;;;;5014718;28;20140;-71
2022/03/07 01:56:51;;;;;;;13.82;7.85;;;;;;;;;;5015004;28;20046;-70
2022/03/07 01:59:21;;;;;;;12.35;7.03;;;;;;;;;;5015020;28;20526;-70
2022/03/07 02:01:49;;;;;;;13.02;7.88;;;;;;;;;;5014206;28;20080;-70
2022/03/07 02:04:18;;;;;;;11.82;6.95;;;;;;;;;;5030783;28;20050;-70
2022/03/07 02:06:49;;;;;;;12.05;6.65;;;;;;;;;;5014767;28;20049;-70
2022/03/07 02:09:42;;;;;;;10.60;6.68;;;;;;;;;;5014281;28;20046;-70
2022/03/07 02:12:13;;;;;;;9.77;5.95;;;;;;;;;;5014449;28;20136;-70
2022/03/07 02:14:44;;;;;;;11.02;6.32;;;;;;;;;;5014470;28;20111;-70
2022/03/07 02:17:13;;;;;;;10.45;6.28;;;;;;;;;;5015957;28;20046;-70
2022/03/07 02:19:45;;;;;;;10.50;6.85;;;;;;;;;;5015318;28;20076;-70
2022/03/07 02:22:38;;;;;;;6.93;4.05;;;;;;;;;;5014204;28;20687;-70
2022/03/07 02:25:10;;;;;;;12.30;6.38;;;;;;;;;;5015552;28;20068;-70
2022/03/07 02:27:38;;;;;;;10.07;6.60;;;;;;;;;;5015701;28;20042;-70
2022/03/07 02:30:10;;;;;;;8.98;5.57;;;;;;;;;;5014023;28;20065;-71
2022/03/07 02:32:47;;;;;;;10.63;6.93;;;;;;;;;;5014021;28;20042;-71
2022/03/07 02:35:15;;;;;;;11.95;6.35;;;;;;;;;;5015281;28;20076;-71
2022/03/07 02:37:45;;;;;;;12.45;6.32;;;;;;;;;;4998469;28;20129;-71
2022/03/07 02:40:20;;;;;;;10.32;6.57;;;;;;;;;;5015561;28;20512;-71
2022/03/07 02:43:13;;;;;;;13.00;7.53;;;;;;;;;;5030427;28;20046;-71
2022/03/07 02:45:43;;;;;;;10.65;6.45;;;;;;;;;;4998150;28;20496;-71
2022/03/07 02:48:36;;;;;;;10.07;6.13;;;;;;;;;;5013480;28;20443;-71
2022/03/07 02:51:07;;;;;;;12.75;7.07;;;;;;;;;;5030355;28;20042;-71
2022/03/07 02:53:39;;;;;;;13.77;7.35;;;;;;;;;;5013773;28;20500;-71
2022/03/07 02:56:08;;;;;;;11.63;7.30;;;;;;;;;;5015063;28;20096;-71
2022/03/07 02:58:39;;;;;;;12.90;7.57;;;;;;;;;;5013861;28;20137;-71
2022/03/07 03:01:10;;;;;;;11.73;6.85;;;;;;;;;;5029907;28;20040;-70
2022/03/07 03:03:44;;;;;;;14.15;7.15;;;;;;;;;;5014897;28;20034;-70
2022/03/07 03:06:12;;;;;;;12.90;7.40;;;;;;;;;;5013343;28;20049;-70
2022/03/07 03:08:45;;;;;;;13.45;7.75;;;;;;;;;;5014794;28;20037;-71
2022/03/07 03:11:13;;;;;;;10.82;6.45;;;;;;;;;;5013614;28;20048;-70
2022/03/07 03:13:47;;;;;;;14.77;8.00;;;;;;;;;;5014525;28;20046;-70
2022/03/07 03:16:15;;;;;;;12.13;7.55;;;;;;;;;;5013322;28;20563;-70
2022/03/07 03:18:58;;;;;;;11.95;7.38;;;;;;;;;;5029471;28;20045;-70
2022/03/07 03:21:26;;;;;;;13.85;8.13;;;;;;;;;;5012989;28;21399;-70
2022/03/07 03:24:12;;;;;;;10.52;6.53;;;;;;;;;;5013279;28;20038;-70
2022/03/07 03:26:39;;;;;;;13.75;7.65;;;;;;;;;;5013155;28;20041;-70
2022/03/07 03:29:07;;;;;;;11.40;6.53;;;;;;;;;;5013118;28;20038;-70
2022/03/07 03:31:38;;;;;;;13.05;7.72;;;;;;;;;;5012898;28;20046;-71
2022/03/07 03:34:19;;;;;;;12.60;7.82;;;;;;;;;;5013386;28;20061;-71
2022/03/07 03:36:47;;;;;;;12.15;6.88;;;;;;;;;;5014457;28;20493;-70
2022/03/07 03:39:14;;;;;;;14.07;7.53;;;;;;;;;;5012968;28;20104;-70
2022/03/07 03:41:42;;;;;;;13.13;7.60;;;;;;;;;;5012551;28;20042;-70
2022/03/07 03:44:20;;;;;;;12.30;7.43;;;;;;;;;;5013550;28;20430;-70
2022/03/07 03:46:47;;;;;;;13.80;7.60;;;;;;;;;;5013048;28;20132;-70
2022/03/07 03:49:15;;;;;;;13.73;7.88;;;;;;;;;;5012797;28;20065;-70
2022/03/07 03:52:08;;;;;;;11.88;7.80;;;;;;;;;;5029144;28;20504;-70
2022/03/07 03:54:37;;;;;;;13.27;7.38;;;;;;;;;;5012519;28;20052;-71
2022/03/07 03:57:05;;;;;;;13.48;7.82;;;;;;;;;;5012631;28;20064;-70
2022/03/07 03:59:59;;;;;;;14.18;7.72;;;;;;;;;;5014139;28;20400;-70
2022/03/07 04:02:28;;;;;;;12.23;7.43;;;;;;;;;;5012581;28;20119;-70
2022/03/07 04:05:01;;;;;;;12.43;7.32;;;;;;;;;;5012146;28;20137;-70
2022/03/07 04:07:55;;;;;;;14.07;8.30;;;;;;;;;;5012225;28;20140;-70
2022/03/07 04:10:28;;;;;;;13.00;8.02;;;;;;;;;;5029043;28;20056;-70
2022/03/07 04:12:55;;;;;;;15.05;8.05;;;;;;;;;;5012686;28;20137;-70
2022/03/07 04:15:25;;;;;;;13.65;7.82;;;;;;;;;;5028518;28;20128;-70
2022/03/07 04:18:02;;;;;;;12.20;7.80;;;;;;;;;;5013514;28;20069;-70
2022/03/07 04:20:29;;;;;;;14.77;8.65;;;;;;;;;;5013689;28;20456;-70
2022/03/07 04:23:02;;;;;;;13.15;8.40;;;;;;;;;;5013283;28;20042;-70
2022/03/07 04:25:39;;;;;;;13.00;8.25;;;;;;;;;;5012293;28;20069;-70
2022/03/07 04:28:07;;;;;;;12.98;7.82;;;;;;;;;;5012132;28;20045;-70
2022/03/07 04:30:51;;;;;;;14.65;8.57;;;;;;;;;;5013506;28;20038;-70
2022/03/07 04:33:24;;;;;;;13.30;8.20;;;;;;;;;;5012450;28;20457;-70
2022/03/07 04:35:52;;;;;;;14.52;8.20;;;;;;;;;;5013636;28;20476;-70
2022/03/07 04:38:45;;;;;;;14.90;9.10;;;;;;;;;;5012175;28;20052;-70
2022/03/07 04:41:18;;;;;;;14.73;9.05;;;;;;;;;;5011900;28;20555;-71
2022/03/07 04:43:46;;;;;;;14.43;8.77;;;;;;;;;;5012079;28;20129;-71
2022/03/07 04:46:18;;;;;;;13.43;8.50;;;;;;;;;;5015161;28;20043;-71
2022/03/07 04:48:47;;;;;;;12.88;8.40;;;;;;;;;;5015848;28;20133;-71
2022/03/07 04:51:45;;;;;;;12.98;7.63;;;;;;;;;;5015737;28;20136;-70
2022/03/07 04:54:17;;;;;;;14.35;8.55;;;;;;;;;;5015929;28;20050;-71
2022/03/07 04:56:52;;;;;;;13.82;8.63;;;;;;;;;;5015931;28;20113;-71
2022/03/07 04:59:19;;;;;;;13.70;8.20;;;;;;;;;;5015735;28;20156;-71
2022/03/07 05:01:52;;;;;;;11.88;7.22;;;;;;;;;;5015547;28;20061;-71
2022/03/07 05:04:44;;;;;;;12.32;8.20;;;;;;;;;;5017309;28;20407;-71
2022/03/07 05:07:15;;;;;;;16.23;9.38;;;;;;;;;;5032131;28;20145;-71
2022/03/07 05:09:44;;;;;;;13.32;8.43;;;;;;;;;;5016705;28;20042;-71
2022/03/07 05:12:16;;;;;;;14.60;8.50;;;;;;;;;;5015486;28;20049;-71
2022/03/07 05:14:48;;;;;;;15.73;8.77;;;;;;;;;;5015508;28;20069;-71
2022/03/07 05:17:15;;;;;;;16.75;8.52;;;;;;;;;;5015434;28;20085;-70
2022/03/07 05:20:08;;;;;;;18.33;11.18;;;;;;;;;;5015560;28;20401;-70
2022/03/07 05:22:40;;;;;;;17.45;11.50;;;;;;;;;;4977595;28;20486;-70
2022/03/07 05:25:14;;;;;;;12.88;8.10;;;;;;;;;;4976236;28;20051;-70
2022/03/07 05:27:42;;;;;;;15.77;9.55;;;;;;;;;;4974661;28;20051;-70
2022/03/07 05:30:10;;;;;;;14.88;8.80;;;;;;;;;;4975795;28;20556;-70
2022/03/07 05:32:46;;;;;;;13.48;8.13;;;;;;;;;;4976984;28;20130;-70
2022/03/07 05:35:14;;;;;;;14.88;9.25;;;;;;;;;;4975750;28;20079;-70
2022/03/07 05:37:41;;;;;;;13.30;8.30;;;;;;;;;;4976087;28;20390;-70
2022/03/07 05:40:18;;;;;;;14.85;8.82;;;;;;;;;;4975659;28;20047;-70
2022/03/07 05:43:12;;;;;;;20.10;12.82;;;;;;;;;;4975971;28;20509;-70
2022/03/07 05:45:44;;;;;;;16.48;10.07;;;;;;;;;;4975989;28;20078;-70
2022/03/07 05:48:19;;;;;;;21.33;10.45;;;;;;;;;;4975851;28;20183;-70
2022/03/07 05:51:11;;;;;;;20.13;11.00;;;;;;;;;;4977854;28;20057;-70
2022/03/07 05:53:39;;;;;;;20.65;11.65;;;;;;;;;;4975428;28;20097;-71
2022/03/07 05:56:07;;;;;;;22.98;13.23;;;;;;;;;;4974937;28;20066;-71
2022/03/07 05:58:36;;;;;;;21.85;13.10;;;;;;;;;;4975582;28;20417;-70
2022/03/07 06:01:08;;;;;;;30.83;17.48;;;;;;;;;;4991940;28;20039;-70
2022/03/07 06:03:36;;;;;;;21.02;11.13;;;;;;;;;;4976876;28;20093;-70
2022/03/07 06:06:04;;;;;;;23.55;12.07;;;;;;;;;;4975053;28;20441;-70
2022/03/07 06:08:38;;;;;;;15.05;8.57;;;;;;;;;;4976835;28;20053;-70
2022/03/07 06:11:06;;;;;;;14.30;9.35;;;;;;;;;;4977069;28;20121;-70
2022/03/07 06:13:59;;;;;;;16.38;10.55;;;;;;;;;;4975524;28;20552;-70
2022/03/07 06:16:26;;;;;;;14.02;9.73;;;;;;;;;;4975358;28;20418;-70
2022/03/07 06:18:58;;;;;;;17.48;12.02;;;;;;;;;;4991855;28;20050;-70
2022/03/07 06:21:27;;;;;;;16.77;10.32;;;;;;;;;;5014886;28;20050;-70
2022/03/07 06:23:59;;;;;;;16.88;10.73;;;;;;;;;;5014227;28;20448;-70
2022/03/07 06:26:35;;;;;;;17.10;11.52;;;;;;;;;;5015774;28;20044;-69
2022/03/07 06:29:05;;;;;;;14.68;10.60;;;;;;;;;;5014608;28;20046;-69
2022/03/07 06:31:33;;;;;;;18.83;10.93;;;;;;;;;;5014144;28;20054;-70
2022/03/07 06:34:03;;;;;;;14.55;9.48;;;;;;;;;;5014142;28;20058;-70
2022/03/07 06:36:34;;;;;;;14.88;9.52;;;;;;;;;;5030257;28;20140;-70
2022/03/07 06:39:27;;;;;;;13.30;9.13;;;;;;;;;;5030426;28;20046;-70
2022/03/07 06:42:00;;;;;;;40.72;12.77;;;;;;;;;;5030127;28;20141;-71
2022/03/07 06:44:39;;;;;;;14.77;9.65;;;;;;;;;;5014070;28;20088;-70
2022/03/07 06:47:09;;;;;;;19.52;11.38;;;;;;;;;;5015733;28;20049;-70
2022/03/07 06:49:42;;;;;;;22.88;13.45;;;;;;;;;;5013599;28;20084;-70
2022/03/07 06:52:35;;;;;;;16.63;10.00;;;;;;;;;;5030068;28;20054;-70
2022/03/07 06:55:03;;;;;;;21.85;14.05;;;;;;;;;;5013767;28;20046;-70
2022/03/07 06:57:30;;;;;;;24.77;15.27;;;;;;;;;;5014889;28;20049;-70
2022/03/07 07:00:08;;;;;;;22.67;14.95;;;;;;;;;;5029922;28;20049;-71
2022/03/07 07:02:36;;;;;;;19.58;13.10;;;;;;;;;;5030265;28;20045;-70
2022/03/07 07:05:30;;;;;;;17.48;11.93;;;;;;;;;;5015087;28;20552;-70
2022/03/07 07:08:23;;;;;;;15.88;10.80;;;;;;;;;;5012707;28;20053;-71
2022/03/07 07:10:55;;;;;;;16.75;11.00;;;;;;;;;;5013389;28;20069;-71
2022/03/07 07:13:27;;;;;;;21.17;11.43;;;;;;;;;;5014660;28;20464;-70
2022/03/07 07:15:55;;;;;;;24.42;12.30;;;;;;;;;;5014777;28;20042;-70
2022/03/07 07:18:25;;;;;;;18.58;11.25;;;;;;;;;;5029861;28;20072;-70
2022/03/07 07:20:53;;;;;;;21.00;12.93;;;;;;;;;;5028135;28;20050;-70
2022/03/07 07:23:22;;;;;;;32.10;14.70;;;;;;;;;;5014524;28;20492;-70
2022/03/07 07:25:54;;;;;;;32.15;15.48;;;;;;;;;;5014445;28;20113;-70
2022/03/07 07:28:22;;;;;;;32.42;15.15;;;;;;;;;;5013097;28;20405;-70
2022/03/07 07:30:50;;;;;;;36.30;19.40;;;;;;;;;;5012896;28;20034;-70
2022/03/07 07:33:19;;;;;;;33.97;17.88;;;;;;;;;;5012626;28;20052;-70
2022/03/07 07:35:49;;;;;;;28.58;16.63;;;;;;;;;;5014128;28;20424;-70
2022/03/07 07:38:22;;;;;;;22.08;13.85;;;;;;;;;;5013131;28;20444;-69
2022/03/07 07:40:55;;;;;;;29.17;15.93;;;;;;;;;;5014297;28;20420;-69
2022/03/07 07:43:25;;;;;;;23.73;14.65;;;;;;;;;;5014387;28;20053;-69
2022/03/07 07:45:57;;;;;;;25.02;14.52;;;;;;;;;;5012876;28;20049;-69
2022/03/07 07:48:25;;;;;;;18.50;11.77;;;;;;;;;;5012764;28;20050;-69
2022/03/07 07:50:56;;;;;;;21.23;12.80;;;;;;;;;;5013104;28;20041;-70
2022/03/07 07:53:28;;;;;;;29.00;16.35;;;;;;;;;;5014120;28;20121;-70
2022/03/07 07:55:56;;;;;;;22.58;13.93;;;;;;;;;;5012711;28;20122;-70
2022/03/07 07:58:26;;;;;;;18.48;11.68;;;;;;;;;;5013776;28;20042;-69
2022/03/07 08:00:59;;;;;;;21.60;13.07;;;;;;;;;;5029274;28;20444;-69
2022/03/07 08:03:26;;;;;;;21.52;12.80;;;;;;;;;;5012476;28;20144;-70
2022/03/07 08:05:57;;;;;;;23.48;13.65;;;;;;;;;;5013627;28;20447;-69
2022/03/07 08:08:28;;;;;;;21.08;13.27;;;;;;;;;;5029169;28;20041;-69
2022/03/07 08:10:57;;;;;;;17.58;12.10;;;;;;;;;;5012639;28;20050;-70
2022/03/07 08:13:26;;;;;;;15.55;10.43;;;;;;;;;;5012237;28;20034;-69
2022/03/07 08:16:00;;;;;;;18.65;11.93;;;;;;;;;;5012468;28;20485;-69
2022/03/07 08:18:28;;;;;;;16.63;10.88;;;;;;;;;;5012281;28;20413;-69
2022/03/07 08:20:59;;;;;;;16.90;11.35;;;;;;;;;;5026888;28;20045;-70
2022/03/07 08:23:28;;;;;;;23.02;13.98;;;;;;;;;;5012428;28;20052;-70
2022/03/07 08:25:59;;;;;;;21.05;13.38;;;;;;;;;;5012099;28;20038;-70
2022/03/07 08:28:48;;;;;;;18.33;12.35;;;;;;;;;;5013423;28;20044;-70
2022/03/07 08:31:40;;;;;;;21.25;12.45;;;;;;;;;;5013292;28;20053;-70
2022/03/07 08:34:08;;;;;;;29.98;17.38;;;;;;;;;;5011573;28;20050;-70
2022/03/07 08:36:42;;;;;;;19.50;12.30;;;;;;;;;;5028380;28;20050;-70
2022/03/07 08:39:10;;;;;;;19.30;12.00;;;;;;;;;;5013351;28;20485;-70
2022/03/07 08:41:39;;;;;;;21.15;12.20;;;;;;;;;;5028044;28;20054;-69
2022/03/07 08:44:10;;;;;;;19.38;13.40;;;;;;;;;;5028509;28;20070;-70
2022/03/07 08:46:39;;;;;;;25.55;15.75;;;;;;;;;;5013408;28;20116;-70
2022/03/07 08:49:08;;;;;;;28.70;17.23;;;;;;;;;;5028850;28;20042;-70
2022/03/07 08:51:43;;;;;;;30.42;17.17;;;;;;;;;;5013427;28;20052;-70
2022/03/07 08:54:11;;;;;;;18.20;11.55;;;;;;;;;;5011797;28;20042;-70
2022/03/07 08:56:41;;;;;;;32.17;16.35;;;;;;;;;;5011954;28;20058;-70
2022/03/07 08:59:13;;;;;;;29.65;15.57;;;;;;;;;;5013445;28;20061;-70
2022/03/07 09:01:41;;;;;;;24.98;14.85;;;;;;;;;;5011982;28;20077;-70
2022/03/07 09:04:10;;;;;;;32.35;16.67;;;;;;;;;;5011587;28;20038;-71
2022/03/07 09:06:44;;;;;;;25.33;14.88;;;;;;;;;;5028678;28;20104;-70
2022/03/07 09:09:13;;;;;;;22.88;13.15;;;;;;;;;;5011853;28;20042;-70
2022/03/07 09:12:01;;;;;;;29.85;14.10;;;;;;;;;;5013058;28;20550;-70
2022/03/07 09:14:32;;;;;;;20.92;12.30;;;;;;;;;;5011767;28;20492;-70
2022/03/07 09:17:02;;;;;;;19.23;12.05;;;;;;;;;;5028146;28;20042;-70
2022/03/07 09:19:30;;;;;;;22.73;13.10;;;;;;;;;;5013186;28;20133;-70
2022/03/07 09:22:03;;;;;;;19.08;12.93;;;;;;;;;;5012029;28;20053;-70
2022/03/07 09:24:32;;;;;;;22.67;13.57;;;;;;;;;;5011836;28;20142;-70
2022/03/07 09:26:59;;;;;;;19.15;13.50;;;;;;;;;;5012917;28;20056;-70
2022/03/07 09:29:27;;;;;;;19.15;12.65;;;;;;;;;;5028117;28;20053;-70
2022/03/07 09:32:00;;;;;;;24.40;14.55;;;;;;;;;;5013367;28;20492;-70
2022/03/07 09:34:53;;;;;;;23.13;14.57;;;;;;;;;;5015155;28;20044;-70
2022/03/07 09:37:25;;;;;;;21.35;13.90;;;;;;;;;;5016638;28;20034;-69
2022/03/07 09:39:52;;;;;;;22.02;14.32;;;;;;;;;;5016810;28;20045;-70
2022/03/07 09:42:21;;;;;;;24.88;16.23;;;;;;;;;;5016378;28;20041;-69
2022/03/07 09:44:52;;;;;;;20.98;14.25;;;;;;;;;;5016636;28;20134;-69
2022/03/07 09:47:25;;;;;;;20.17;12.55;;;;;;;;;;5016225;28;20049;-70
2022/03/07 09:49:54;;;;;;;19.48;13.32;;;;;;;;;;5016693;28;20451;-70
2022/03/07 09:52:24;;;;;;;21.95;13.43;;;;;;;;;;5014480;28;20034;-70
2022/03/07 09:55:17;;;;;;;20.88;14.18;;;;;;;;;;5016303;28;20038;-69
2022/03/07 09:58:10;;;;;;;19.02;13.63;;;;;;;;;;5016211;28;20378;-70
2022/03/07 10:00:42;;;;;;;20.25;13.38;;;;;;;;;;5016221;28;20510;-70
2022/03/07 10:03:18;;;;;;;19.92;13.57;;;;;;;;;;5014504;28;20463;-70
2022/03/07 10:05:51;;;;;;;31.15;13.57;;;;;;;;;;5015970;28;20122;-70
2022/03/07 10:08:32;;;;;;;18.40;12.55;;;;;;;;;;5014634;28;20042;-69
2022/03/07 10:11:07;;;;;;;23.23;14.98;;;;;;;;;;5030913;28;20535;-70
2022/03/07 10:13:37;;;;;;;17.83;11.73;;;;;;;;;;5030548;28;20076;-71
2022/03/07 10:16:08;;;;;;;21.80;13.20;;;;;;;;;;5030773;28;20054;-70
2022/03/07 10:18:48;;;;;;;25.25;15.25;;;;;;;;;;5030487;28;20045;-71
2022/03/07 10:21:21;;;;;;;31.13;18.27;;;;;;;;;;5029682;28;20068;-70
2022/03/07 10:23:53;;;;;;;22.35;14.80;;;;;;;;;;5014445;28;20148;-71
2022/03/07 10:26:46;;;;;;;24.75;15.73;;;;;;;;;;5015873;28;20049;-71
2022/03/07 10:29:39;;;;;;;24.95;15.10;;;;;;;;;;5014285;28;20050;-71
2022/03/07 10:32:32;;;;;;;39.28;19.35;;;;;;;;;;5014345;28;20137;-71
2022/03/07 10:35:24;;;;;;;32.15;18.73;;;;;;;;;;5015456;28;20120;-71
2022/03/07 10:38:17;;;;;;;24.17;14.88;;;;;;;;;;5015662;28;20042;-71
2022/03/07 10:40:55;;;;;;;22.88;13.85;;;;;;;;;;5015245;28;20072;-70
2022/03/07 10:43:24;;;;;;;19.63;13.20;;;;;;;;;;5013900;28;20544;-70
2022/03/07 10:45:58;;;;;;;25.98;15.75;;;;;;;;;;5030581;28;20042;-70
2022/03/07 10:48:27;;;;;;;20.95;14.57;;;;;;;;;;5030124;28;20056;-70
2022/03/07 10:50:58;;;;;;;22.05;14.18;;;;;;;;;;5014749;28;20393;-70
2022/03/07 10:53:30;;;;;;;23.73;14.77;;;;;;;;;;5030433;28;20096;-70
2022/03/07 10:56:00;;;;;;;19.95;12.93;;;;;;;;;;5030475;28;20136;-69
2022/03/07 10:58:30;;;;;;;23.30;14.70;;;;;;;;;;5013497;28;20046;-70
2022/03/07 11:01:04;;;;;;;21.92;14.18;;;;;;;;;;5030315;28;20464;-70
2022/03/07 11:03:34;;;;;;;23.13;16.10;;;;;;;;;;5013586;28;20049;-70
2022/03/07 11:06:04;;;;;;;22.42;14.65;;;;;;;;;;5014571;28;20065;-70
2022/03/07 11:08:36;;;;;;;18.48;12.60;;;;;;;;;;5013578;28;20093;-70
2022/03/07 11:11:03;;;;;;;22.65;13.50;;;;;;;;;;5014789;28;20046;-70
2022/03/07 11:13:34;;;;;;;20.20;13.90;;;;;;;;;;5013041;28;20045;-70
2022/03/07 11:16:07;;;;;;;21.98;13.93;;;;;;;;;;5013510;28;20046;-70
2022/03/07 11:18:36;;;;;;;21.67;14.35;;;;;;;;;;5030198;28;20084;-70
2022/03/07 11:21:03;;;;;;;22.25;14.52;;;;;;;;;;5012980;28;20053;-70
2022/03/07 11:23:31;;;;;;;19.55;13.05;;;;;;;;;;5014462;28;20038;-70
2022/03/07 11:26:01;;;;;;;22.75;14.35;;;;;;;;;;5013265;28;20045;-69
2022/03/07 11:28:32;;;;;;;21.15;13.98;;;;;;;;;;5014446;28;20042;-70
2022/03/07 11:31:18;;;;;;;23.45;14.32;;;;;;;;;;5014376;28;20404;-69
2022/03/07 11:33:50;;;;;;;22.00;13.57;;;;;;;;;;5014325;28;20515;-69
2022/03/07 11:36:21;;;;;;;20.58;13.85;;;;;;;;;;5014097;28;20038;-69
2022/03/07 11:38:56;;;;;;;20.70;13.63;;;;;;;;;;5013063;28;20048;-70
2022/03/07 11:41:40;;;;;;;20.58;13.27;;;;;;;;;;5014474;28;20076;-70
2022/03/07 11:44:14;;;;;;;23.85;14.13;;;;;;;;;;5029100;28;20048;-70
2022/03/07 11:46:51;;;;;;;20.70;14.32;;;;;;;;;;5014638;28;20493;-70
2022/03/07 11:49:28;;;;;;;23.67;15.27;;;;;;;;;;5012628;28;20077;-70
2022/03/07 11:52:23;;;;;;;23.25;14.93;;;;;;;;;;5013131;28;20045;-70
2022/03/07 11:54:53;;;;;;;28.50;16.48;;;;;;;;;;5012208;28;20129;-69
2022/03/07 11:57:37;;;;;;;22.85;14.10;;;;;;;;;;5013964;28;20496;-69
2022/03/07 12:00:20;;;;;;;25.52;15.13;;;;;;;;;;5029055;28;20070;-69
2022/03/07 12:02:51;;;;;;;26.27;16.25;;;;;;;;;;5013443;28;20567;-69
2022/03/07 12:05:43;;;;;;;24.83;16.65;;;;;;;;;;5013883;28;20049;-69
2022/03/07 12:08:37;;;;;;;25.13;16.17;;;;;;;;;;5029573;28;20046;-69
2022/03/07 12:11:30;;;;;;;26.15;16.85;;;;;;;;;;5013251;28;20050;-69
2022/03/07 12:14:23;;;;;;;25.52;16.33;;;;;;;;;;5014053;28;20096;-69
2022/03/07 12:16:54;;;;;;;24.23;16.77;;;;;;;;;;5013619;28;20046;-69
2022/03/07 12:19:29;;;;;;;26.05;17.02;;;;;;;;;;5013818;28;20034;-69
2022/03/07 12:21:57;;;;;;;25.23;17.45;;;;;;;;;;5013767;28;20050;-69
2022/03/07 12:24:26;;;;;;;24.23;15.52;;;;;;;;;;5012460;28;20042;-69
2022/03/07 12:26:57;;;;;;;22.65;14.43;;;;;;;;;;5013731;28;20392;-69
2022/03/07 12:29:31;;;;;;;20.80;14.18;;;;;;;;;;5028729;28;20480;-69
2022/03/07 12:32:06;;;;;;;17.80;12.80;;;;;;;;;;5012291;28;20443;-69
2022/03/07 12:34:36;;;;;;;19.33;12.23;;;;;;;;;;5013472;28;20117;-69
2022/03/07 12:37:08;;;;;;;19.17;13.38;;;;;;;;;;5013115;28;20129;-69
2022/03/07 12:39:54;;;;;;;21.58;14.05;;;;;;;;;;5013771;28;20033;-70
2022/03/07 12:42:24;;;;;;;20.33;12.95;;;;;;;;;;5013350;28;20507;-70
2022/03/07 12:44:59;;;;;;;19.55;13.20;;;;;;;;;;5013480;28;20064;-70
2022/03/07 12:47:34;;;;;;;20.15;13.75;;;;;;;;;;5013726;28;20088;-70
2022/03/07 12:50:02;;;;;;;20.17;13.53;;;;;;;;;;5028553;28;20133;-70
2022/03/07 12:52:35;;;;;;;21.73;14.38;;;;;;;;;;5011865;28;20283;-69
2022/03/07 12:55:08;;;;;;;22.50;15.20;;;;;;;;;;5012057;28;20046;-69
2022/03/07 12:57:44;;;;;;;22.77;14.98;;;;;;;;;;5028525;28;20066;-70
2022/03/07 13:00:24;;;;;;;21.55;15.07;;;;;;;;;;5011935;28;20037;-70
2022/03/07 13:02:58;;;;;;;23.88;15.82;;;;;;;;;;5013590;28;20083;-69
2022/03/07 13:05:35;;;;;;;22.88;14.52;;;;;;;;;;5013355;28;20041;-69
2022/03/07 13:08:06;;;;;;;20.60;14.13;;;;;;;;;;5031882;28;20096;-69
2022/03/07 13:10:49;;;;;;;21.70;14.35;;;;;;;;;;5016457;28;20095;-69
2022/03/07 13:13:21;;;;;;;21.25;14.23;;;;;;;;;;5016134;28;20046;-69
2022/03/07 13:15:58;;;;;;;16.75;11.70;;;;;;;;;;5015863;28;20056;-69
2022/03/07 13:18:56;;;;;;;19.55;13.55;;;;;;;;;;5015332;28;20062;-69
2022/03/07 13:21:24;;;;;;;21.35;14.00;;;;;;;;;;5013909;28;20046;-69
2022/03/07 13:23:52;;;;;;;19.23;13.50;;;;;;;;;;5016792;28;20447;-69
2022/03/07 13:26:27;;;;;;;20.85;13.77;;;;;;;;;;5031958;28;20049;-69
2022/03/07 13:29:15;;;;;;;18.85;13.20;;;;;;;;;;5031957;28;20089;-69
2022/03/07 13:31:50;;;;;;;20.30;12.88;;;;;;;;;;5031741;28;20041;-71
2022/03/07 13:34:22;;;;;;;20.27;14.27;;;;;;;;;;5016598;28;20113;-70
2022/03/07 13:36:57;;;;;;;17.95;12.60;;;;;;;;;;5016313;28;20062;-68
2022/03/07 13:39:25;;;;;;;21.67;13.50;;;;;;;;;;5016443;28;20042;-69
2022/03/07 13:42:01;;;;;;;20.70;13.23;;;;;;;;;;5016467;28;20069;-69
2022/03/07 13:44:32;;;;;;;;;;;;;;;;;;5015623;28;20042;-70
2022/03/07 13:47:09;;;;;;;18.08;12.20;;;;;;;;;;5015234;28;19928;-70
2022/03/07 13:49:52;;;;;;;21.58;13.10;;;;;;;;;;5014485;28;20046;-69
2022/03/07 13:52:28;;;;;;;20.27;12.65;;;;;;;;;;5031329;28;20053;-69
2022/03/07 13:54:56;;;;;;;18.52;11.93;;;;;;;;;;5031555;28;20088;-69
2022/03/07 13:57:30;;;;;;;20.55;12.85;;;;;;;;;;5031031;28;20046;-69
2022/03/07 14:00:02;;;;;;;26.33;15.95;;;;;;;;;;5014840;28;20046;-69
2022/03/07 14:02:40;;;;;;;19.80;12.48;;;;;;;;;;5015964;28;20409;-70
2022/03/07 14:05:08;;;;;;;19.80;13.45;;;;;;;;;;5013429;28;20042;-70
2022/03/07 14:08:01;;;;;;;22.33;14.18;;;;;;;;;;4994873;28;20517;-70
2022/03/07 14:10:56;;;;;;;19.05;12.85;;;;;;;;;;4996346;28;20122;-70
2022/03/07 14:13:43;;;;;;;16.95;11.77;;;;;;;;;;4996626;28;20113;-69
2022/03/07 14:16:17;;;;;;;18.55;12.23;;;;;;;;;;5011227;28;20476;-69
2022/03/07 14:18:53;;;;;;;18.33;12.27;;;;;;;;;;5010766;28;20053;-69
2022/03/07 14:21:23;;;;;;;20.17;13.55;;;;;;;;;;4994037;28;20054;-69
2022/03/07 14:24:04;;;;;;;18.50;12.20;;;;;;;;;;4995988;28;20050;-69
2022/03/07 14:26:33;;;;;;;17.42;11.73;;;;;;;;;;5010925;28;20548;-68
2022/03/07 14:29:12;;;;;;;18.30;11.30;;;;;;;;;;4995910;28;20039;-69
2022/03/07 14:31:44;;;;;;;20.83;11.00;;;;;;;;;;4995771;28;20093;-70
2022/03/07 14:34:37;;;;;;;14.75;10.45;;;;;;;;;;4994649;28;20308;-70
2022/03/07 14:37:35;;;;;;;15.45;10.55;;;;;;;;;;5013066;28;20133;-72
2022/03/07 14:40:06;;;;;;;14.95;10.30;;;;;;;;;;4995946;28;20088;-69
2022/03/07 14:42:40;;;;;;;16.50;10.90;;;;;;;;;;4995790;28;20054;-69
2022/03/07 14:45:14;;;;;;;14.73;9.90;;;;;;;;;;4994256;28;20133;-70
2022/03/07 14:47:51;;;;;;;18.10;10.82;;;;;;;;;;4995414;28;20073;-70
2022/03/07 14:50:20;;;;;;;24.40;11.93;;;;;;;;;;5009973;28;20096;-74
2022/03/07 14:52:49;;;;;;;16.05;10.70;;;;;;;;;;4993933;28;20034;-69
2022/03/07 14:55:19;;;;;;;16.30;11.00;;;;;;;;;;4994443;28;20153;-69
2022/03/07 14:57:58;;;;;;;16.00;11.05;;;;;;;;;;4996405;28;20485;-70
2022/03/07 15:00:27;;;;;;;18.17;12.30;;;;;;;;;;4995378;28;20141;-70
2022/03/07 15:02:58;;;;;;;18.52;11.57;;;;;;;;;;4993957;28;20046;-69